sensor_id;sensor_type;location;lat;lon;timestamp;P1;durP1;ratioP1;P2;durP2;ratioP2
45254;SDS011;30989;52.078;21.014;2023-12-20T00:02:08;14.65;;;7.65;;
45254;SDS011;30989;52.078;21.014;2023-12-20T00:04:33;13.52;;;7.07;;
45254;SDS011;30989;52.078;21.014;2023-12-20T00:06:59;17.70;;;7.53;;
45254;SDS011;30989;52.078;21.014;2023-12-20T00:09:24;12.68;;;6.07;;
45254;SDS011;30989;52.078;21.014;2023-12-20T00:11:50;11.38;;;5.30;;
45254;SDS011;30989;52.078;21.014;2023-12-20T00:14:15;10.70;;;5.70;;
45254;SDS011;30989;52.078;21.014;2023-12-20T00:16:40;12.07;;;6.32;;
45254;SDS011;30989;52.078;21.014;2023-12-20T00:19:06;11.82;;;5.90;;
45254;SDS011;30989;52.078;21.014;2023-12-20T00:21:32;10.20;;;5.22;;
45254;SDS011;30989;52.078;21.014;2023-12-20T00:23:57;11.77;;;5.38;;
45254;SDS011;30989;52.078;21.014;2023-12-20T00:26:22;11.82;;;5.30;;
45254;SDS011;30989;52.078;21.014;2023-12-20T00:28:48;12.20;;;5.65;;
45254;SDS011;30989;52.078;21.014;2023-12-20T00:31:13;10.50;;;5.53;;
45254;SDS011;30989;52.078;21.014;2023-12-20T00:33:39;9.90;;;5.25;;
45254;SDS011;30989;52.078;21.014;2023-12-20T00:36:08;10.48;;;5.57;;
45254;SDS011;30989;52.078;21.014;2023-12-20T00:38:34;9.10;;;4.65;;
45254;SDS011;30989;52.078;21.014;2023-12-20T00:41:00;10.35;;;5.40;;
45254;SDS011;30989;52.078;21.014;2023-12-20T00:43:25;10.02;;;5.13;;
45254;SDS011;30989;52.078;21.014;2023-12-20T00:45:51;13.73;;;5.07;;
45254;SDS011;30989;52.078;21.014;2023-12-20T00:48:17;9.13;;;4.75;;
45254;SDS011;30989;52.078;21.014;2023-12-20T00:50:42;9.40;;;5.57;;
45254;SDS011;30989;52.078;21.014;2023-12-20T00:53:07;7.53;;;4.40;;
45254;SDS011;30989;52.078;21.014;2023-12-20T00:55:33;9.63;;;4.60;;
45254;SDS011;30989;52.078;21.014;2023-12-20T00:57:58;11.88;;;5.00;;
45254;SDS011;30989;52.078;21.014;2023-12-20T01:00:25;10.35;;;4.80;;
45254;SDS011;30989;52.078;21.014;2023-12-20T01:02:50;8.45;;;4.80;;
45254;SDS011;30989;52.078;21.014;2023-12-20T01:05:17;8.02;;;4.30;;
45254;SDS011;30989;52.078;21.014;2023-12-20T01:07:43;8.82;;;4.60;;
45254;SDS011;30989;52.078;21.014;2023-12-20T01:10:08;8.80;;;4.30;;
45254;SDS011;30989;52.078;21.014;2023-12-20T01:12:35;9.63;;;4.82;;
45254;SDS011;30989;52.078;21.014;2023-12-20T01:15:01;10.50;;;4.65;;
45254;SDS011;30989;52.078;21.014;2023-12-20T01:17:27;7.40;;;3.53;;
45254;SDS011;30989;52.078;21.014;2023-12-20T01:19:52;9.43;;;4.20;;
45254;SDS011;30989;52.078;21.014;2023-12-20T01:22:18;9.10;;;4.45;;
45254;SDS011;30989;52.078;21.014;2023-12-20T01:24:44;9.55;;;4.43;;
45254;SDS011;30989;52.078;21.014;2023-12-20T01:27:09;9.57;;;5.07;;
45254;SDS011;30989;52.078;21.014;2023-12-20T01:29:35;9.27;;;4.50;;
45254;SDS011;30989;52.078;21.014;2023-12-20T01:32:00;7.47;;;4.32;;
45254;SDS011;30989;52.078;21.014;2023-12-20T01:34:26;11.75;;;5.45;;
45254;SDS011;30989;52.078;21.014;2023-12-20T01:36:51;11.25;;;5.65;;
45254;SDS011;30989;52.078;21.014;2023-12-20T01:39:17;12.77;;;4.47;;
45254;SDS011;30989;52.078;21.014;2023-12-20T01:41:43;7.22;;;3.75;;
45254;SDS011;30989;52.078;21.014;2023-12-20T01:44:08;8.75;;;4.25;;
45254;SDS011;30989;52.078;21.014;2023-12-20T01:46:34;8.40;;;4.18;;
45254;SDS011;30989;52.078;21.014;2023-12-20T01:48:59;10.10;;;4.78;;
45254;SDS011;30989;52.078;21.014;2023-12-20T01:51:25;9.75;;;4.90;;
45254;SDS011;30989;52.078;21.014;2023-12-20T01:53:52;8.68;;;4.50;;
45254;SDS011;30989;52.078;21.014;2023-12-20T01:56:20;9.88;;;4.47;;
45254;SDS011;30989;52.078;21.014;2023-12-20T01:58:46;6.88;;;3.53;;
45254;SDS011;30989;52.078;21.014;2023-12-20T02:01:13;13.88;;;4.72;;
45254;SDS011;30989;52.078;21.014;2023-12-20T02:03:41;8.40;;;4.68;;
45254;SDS011;30989;52.078;21.014;2023-12-20T02:06:07;9.52;;;4.00;;
45254;SDS011;30989;52.078;21.014;2023-12-20T02:08:34;7.30;;;3.90;;
45254;SDS011;30989;52.078;21.014;2023-12-20T02:11:00;7.95;;;4.03;;
45254;SDS011;30989;52.078;21.014;2023-12-20T02:13:26;6.88;;;3.70;;
45254;SDS011;30989;52.078;21.014;2023-12-20T02:15:52;8.13;;;4.38;;
45254;SDS011;30989;52.078;21.014;2023-12-20T02:18:17;8.73;;;3.55;;
45254;SDS011;30989;52.078;21.014;2023-12-20T02:20:43;8.90;;;3.67;;
45254;SDS011;30989;52.078;21.014;2023-12-20T02:23:09;6.80;;;3.28;;
45254;SDS011;30989;52.078;21.014;2023-12-20T02:25:34;5.78;;;3.10;;
45254;SDS011;30989;52.078;21.014;2023-12-20T02:28:00;6.80;;;3.45;;
45254;SDS011;30989;52.078;21.014;2023-12-20T02:30:26;7.95;;;3.63;;
45254;SDS011;30989;52.078;21.014;2023-12-20T02:32:51;4.95;;;2.63;;
45254;SDS011;30989;52.078;21.014;2023-12-20T02:35:17;4.82;;;2.60;;
45254;SDS011;30989;52.078;21.014;2023-12-20T02:37:43;6.95;;;3.30;;
45254;SDS011;30989;52.078;21.014;2023-12-20T02:40:08;4.90;;;2.50;;
45254;SDS011;30989;52.078;21.014;2023-12-20T02:42:34;6.43;;;2.80;;
45254;SDS011;30989;52.078;21.014;2023-12-20T02:44:59;5.38;;;2.83;;
45254;SDS011;30989;52.078;21.014;2023-12-20T02:47:25;6.45;;;3.25;;
45254;SDS011;30989;52.078;21.014;2023-12-20T02:49:50;6.40;;;2.70;;
45254;SDS011;30989;52.078;21.014;2023-12-20T02:52:15;6.40;;;2.72;;
45254;SDS011;30989;52.078;21.014;2023-12-20T02:54:41;6.90;;;2.58;;
45254;SDS011;30989;52.078;21.014;2023-12-20T02:57:06;6.25;;;2.92;;
45254;SDS011;30989;52.078;21.014;2023-12-20T02:59:32;4.55;;;2.67;;
45254;SDS011;30989;52.078;21.014;2023-12-20T03:01:57;5.72;;;2.85;;
45254;SDS011;30989;52.078;21.014;2023-12-20T03:04:22;6.00;;;2.63;;
45254;SDS011;30989;52.078;21.014;2023-12-20T03:06:48;4.13;;;2.33;;
45254;SDS011;30989;52.078;21.014;2023-12-20T03:09:13;6.10;;;2.97;;
45254;SDS011;30989;52.078;21.014;2023-12-20T03:11:39;4.80;;;2.42;;
45254;SDS011;30989;52.078;21.014;2023-12-20T03:14:04;7.00;;;3.00;;
45254;SDS011;30989;52.078;21.014;2023-12-20T03:16:30;6.88;;;3.13;;
45254;SDS011;30989;52.078;21.014;2023-12-20T03:18:56;8.20;;;3.00;;
45254;SDS011;30989;52.078;21.014;2023-12-20T03:21:21;5.72;;;2.90;;
45254;SDS011;30989;52.078;21.014;2023-12-20T03:23:47;6.97;;;3.05;;
45254;SDS011;30989;52.078;21.014;2023-12-20T03:26:12;7.35;;;3.35;;
45254;SDS011;30989;52.078;21.014;2023-12-20T03:28:38;8.48;;;3.53;;
45254;SDS011;30989;52.078;21.014;2023-12-20T03:31:04;9.30;;;3.40;;
45254;SDS011;30989;52.078;21.014;2023-12-20T03:33:29;5.35;;;2.80;;
45254;SDS011;30989;52.078;21.014;2023-12-20T03:35:55;5.95;;;3.15;;
45254;SDS011;30989;52.078;21.014;2023-12-20T03:38:20;6.57;;;3.13;;
45254;SDS011;30989;52.078;21.014;2023-12-20T03:40:46;5.32;;;2.65;;
45254;SDS011;30989;52.078;21.014;2023-12-20T03:43:12;5.55;;;2.97;;
45254;SDS011;30989;52.078;21.014;2023-12-20T03:45:37;6.57;;;3.20;;
45254;SDS011;30989;52.078;21.014;2023-12-20T03:48:03;6.70;;;3.20;;
45254;SDS011;30989;52.078;21.014;2023-12-20T03:50:29;6.22;;;2.88;;
45254;SDS011;30989;52.078;21.014;2023-12-20T03:52:54;5.63;;;2.78;;
45254;SDS011;30989;52.078;21.014;2023-12-20T03:55:19;7.70;;;3.15;;
45254;SDS011;30989;52.078;21.014;2023-12-20T03:57:45;5.70;;;2.80;;
45254;SDS011;30989;52.078;21.014;2023-12-20T04:00:11;5.07;;;2.47;;
45254;SDS011;30989;52.078;21.014;2023-12-20T04:02:39;6.13;;;2.53;;
45254;SDS011;30989;52.078;21.014;2023-12-20T04:05:09;5.13;;;2.45;;
45254;SDS011;30989;52.078;21.014;2023-12-20T04:07:35;5.45;;;2.72;;
45254;SDS011;30989;52.078;21.014;2023-12-20T04:10:01;4.88;;;2.97;;
45254;SDS011;30989;52.078;21.014;2023-12-20T04:12:28;5.35;;;2.88;;
45254;SDS011;30989;52.078;21.014;2023-12-20T04:14:54;5.25;;;2.85;;
45254;SDS011;30989;52.078;21.014;2023-12-20T04:17:19;5.13;;;2.92;;
45254;SDS011;30989;52.078;21.014;2023-12-20T04:19:45;7.13;;;2.92;;
45254;SDS011;30989;52.078;21.014;2023-12-20T04:22:10;5.93;;;3.15;;
45254;SDS011;30989;52.078;21.014;2023-12-20T04:24:36;7.55;;;3.35;;
45254;SDS011;30989;52.078;21.014;2023-12-20T04:27:02;5.78;;;3.17;;
45254;SDS011;30989;52.078;21.014;2023-12-20T04:29:27;5.57;;;3.00;;
45254;SDS011;30989;52.078;21.014;2023-12-20T04:31:53;4.93;;;2.35;;
45254;SDS011;30989;52.078;21.014;2023-12-20T04:34:19;6.35;;;3.15;;
45254;SDS011;30989;52.078;21.014;2023-12-20T04:36:45;5.40;;;3.03;;
45254;SDS011;30989;52.078;21.014;2023-12-20T04:39:11;4.93;;;2.80;;
45254;SDS011;30989;52.078;21.014;2023-12-20T04:41:38;5.97;;;3.17;;
45254;SDS011;30989;52.078;21.014;2023-12-20T04:44:03;6.78;;;3.17;;
45254;SDS011;30989;52.078;21.014;2023-12-20T04:46:29;5.75;;;2.80;;
45254;SDS011;30989;52.078;21.014;2023-12-20T04:48:54;4.93;;;3.00;;
45254;SDS011;30989;52.078;21.014;2023-12-20T04:51:20;4.68;;;2.70;;
45254;SDS011;30989;52.078;21.014;2023-12-20T04:53:45;5.10;;;3.17;;
45254;SDS011;30989;52.078;21.014;2023-12-20T04:56:11;5.40;;;2.92;;
45254;SDS011;30989;52.078;21.014;2023-12-20T04:58:37;4.60;;;2.90;;
45254;SDS011;30989;52.078;21.014;2023-12-20T05:01:03;5.78;;;3.25;;
45254;SDS011;30989;52.078;21.014;2023-12-20T05:03:30;3.97;;;2.55;;
45254;SDS011;30989;52.078;21.014;2023-12-20T05:05:55;6.60;;;3.13;;
45254;SDS011;30989;52.078;21.014;2023-12-20T05:08:21;6.72;;;3.67;;
45254;SDS011;30989;52.078;21.014;2023-12-20T05:10:46;7.68;;;3.33;;
45254;SDS011;30989;52.078;21.014;2023-12-20T05:13:12;7.68;;;3.92;;
45254;SDS011;30989;52.078;21.014;2023-12-20T05:15:37;5.50;;;3.15;;
45254;SDS011;30989;52.078;21.014;2023-12-20T05:18:03;4.97;;;3.13;;
45254;SDS011;30989;52.078;21.014;2023-12-20T05:20:29;5.25;;;3.22;;
45254;SDS011;30989;52.078;21.014;2023-12-20T05:22:54;9.45;;;3.95;;
45254;SDS011;30989;52.078;21.014;2023-12-20T05:25:19;5.68;;;2.97;;
45254;SDS011;30989;52.078;21.014;2023-12-20T05:27:45;7.10;;;3.40;;
45254;SDS011;30989;52.078;21.014;2023-12-20T05:30:10;6.65;;;3.83;;
45254;SDS011;30989;52.078;21.014;2023-12-20T05:32:36;7.88;;;3.53;;
45254;SDS011;30989;52.078;21.014;2023-12-20T05:35:02;6.45;;;3.33;;
45254;SDS011;30989;52.078;21.014;2023-12-20T05:37:28;5.82;;;3.10;;
45254;SDS011;30989;52.078;21.014;2023-12-20T05:39:53;6.78;;;3.22;;
45254;SDS011;30989;52.078;21.014;2023-12-20T05:42:19;7.45;;;3.35;;
45254;SDS011;30989;52.078;21.014;2023-12-20T05:44:44;6.80;;;3.92;;
45254;SDS011;30989;52.078;21.014;2023-12-20T05:47:10;7.97;;;4.40;;
45254;SDS011;30989;52.078;21.014;2023-12-20T05:49:35;8.18;;;4.10;;
45254;SDS011;30989;52.078;21.014;2023-12-20T05:52:00;7.22;;;4.13;;
45254;SDS011;30989;52.078;21.014;2023-12-20T05:54:26;8.38;;;4.45;;
45254;SDS011;30989;52.078;21.014;2023-12-20T05:56:51;6.53;;;3.83;;
45254;SDS011;30989;52.078;21.014;2023-12-20T05:59:17;5.35;;;3.15;;
45254;SDS011;30989;52.078;21.014;2023-12-20T06:01:42;6.10;;;3.28;;
45254;SDS011;30989;52.078;21.014;2023-12-20T06:04:08;6.80;;;3.85;;
45254;SDS011;30989;52.078;21.014;2023-12-20T06:06:33;7.85;;;4.25;;
45254;SDS011;30989;52.078;21.014;2023-12-20T06:08:59;6.30;;;3.58;;
45254;SDS011;30989;52.078;21.014;2023-12-20T06:11:24;7.13;;;3.17;;
45254;SDS011;30989;52.078;21.014;2023-12-20T06:13:50;7.38;;;4.18;;
45254;SDS011;30989;52.078;21.014;2023-12-20T06:16:17;6.88;;;3.70;;
45254;SDS011;30989;52.078;21.014;2023-12-20T06:18:43;8.15;;;3.67;;
45254;SDS011;30989;52.078;21.014;2023-12-20T06:21:08;6.45;;;3.45;;
45254;SDS011;30989;52.078;21.014;2023-12-20T06:23:37;9.00;;;4.63;;
45254;SDS011;30989;52.078;21.014;2023-12-20T06:26:03;6.32;;;3.90;;
45254;SDS011;30989;52.078;21.014;2023-12-20T06:28:29;7.80;;;4.15;;
45254;SDS011;30989;52.078;21.014;2023-12-20T06:30:54;8.23;;;4.15;;
45254;SDS011;30989;52.078;21.014;2023-12-20T06:33:20;6.00;;;3.38;;
45254;SDS011;30989;52.078;21.014;2023-12-20T06:35:47;7.57;;;3.80;;
45254;SDS011;30989;52.078;21.014;2023-12-20T06:38:12;6.13;;;3.58;;
45254;SDS011;30989;52.078;21.014;2023-12-20T06:40:38;8.82;;;3.88;;
45254;SDS011;30989;52.078;21.014;2023-12-20T06:43:03;15.27;;;4.72;;
45254;SDS011;30989;52.078;21.014;2023-12-20T06:45:28;9.48;;;4.38;;
45254;SDS011;30989;52.078;21.014;2023-12-20T06:47:54;7.35;;;3.50;;
45254;SDS011;30989;52.078;21.014;2023-12-20T06:50:20;8.43;;;3.88;;
45254;SDS011;30989;52.078;21.014;2023-12-20T06:52:45;7.22;;;4.28;;
45254;SDS011;30989;52.078;21.014;2023-12-20T06:55:11;6.80;;;3.72;;
45254;SDS011;30989;52.078;21.014;2023-12-20T06:57:36;9.57;;;4.28;;
45254;SDS011;30989;52.078;21.014;2023-12-20T07:00:02;8.02;;;4.07;;
45254;SDS011;30989;52.078;21.014;2023-12-20T07:02:28;8.05;;;4.15;;
45254;SDS011;30989;52.078;21.014;2023-12-20T07:04:55;9.05;;;5.25;;
45254;SDS011;30989;52.078;21.014;2023-12-20T07:07:21;8.07;;;5.15;;
45254;SDS011;30989;52.078;21.014;2023-12-20T07:09:48;9.77;;;4.97;;
45254;SDS011;30989;52.078;21.014;2023-12-20T07:12:13;8.15;;;4.60;;
45254;SDS011;30989;52.078;21.014;2023-12-20T07:14:39;9.23;;;4.55;;
45254;SDS011;30989;52.078;21.014;2023-12-20T07:17:04;8.18;;;4.75;;
45254;SDS011;30989;52.078;21.014;2023-12-20T07:19:32;8.57;;;4.50;;
45254;SDS011;30989;52.078;21.014;2023-12-20T07:21:57;12.15;;;4.82;;
45254;SDS011;30989;52.078;21.014;2023-12-20T07:24:23;7.72;;;4.70;;
45254;SDS011;30989;52.078;21.014;2023-12-20T07:26:48;7.82;;;4.78;;
45254;SDS011;30989;52.078;21.014;2023-12-20T07:29:13;9.27;;;4.88;;
45254;SDS011;30989;52.078;21.014;2023-12-20T07:31:39;8.52;;;4.85;;
45254;SDS011;30989;52.078;21.014;2023-12-20T07:34:04;11.20;;;4.68;;
45254;SDS011;30989;52.078;21.014;2023-12-20T07:36:30;9.95;;;5.55;;
45254;SDS011;30989;52.078;21.014;2023-12-20T07:38:56;8.20;;;4.50;;
45254;SDS011;30989;52.078;21.014;2023-12-20T07:41:21;9.60;;;5.47;;
45254;SDS011;30989;52.078;21.014;2023-12-20T07:43:47;9.73;;;5.60;;
45254;SDS011;30989;52.078;21.014;2023-12-20T07:46:12;12.43;;;5.47;;
45254;SDS011;30989;52.078;21.014;2023-12-20T07:48:38;9.45;;;4.85;;
45254;SDS011;30989;52.078;21.014;2023-12-20T07:51:04;10.02;;;4.88;;
45254;SDS011;30989;52.078;21.014;2023-12-20T07:53:30;8.23;;;4.90;;
45254;SDS011;30989;52.078;21.014;2023-12-20T07:55:56;10.30;;;5.70;;
45254;SDS011;30989;52.078;21.014;2023-12-20T07:58:21;10.75;;;5.10;;
45254;SDS011;30989;52.078;21.014;2023-12-20T08:00:47;9.27;;;4.82;;
45254;SDS011;30989;52.078;21.014;2023-12-20T08:03:12;10.48;;;6.03;;
45254;SDS011;30989;52.078;21.014;2023-12-20T08:05:38;10.40;;;5.30;;
45254;SDS011;30989;52.078;21.014;2023-12-20T08:08:05;8.63;;;4.55;;
45254;SDS011;30989;52.078;21.014;2023-12-20T08:10:31;9.82;;;4.95;;
45254;SDS011;30989;52.078;21.014;2023-12-20T08:12:57;9.80;;;5.10;;
45254;SDS011;30989;52.078;21.014;2023-12-20T08:15:22;9.45;;;4.90;;
45254;SDS011;30989;52.078;21.014;2023-12-20T08:17:48;8.23;;;4.50;;
45254;SDS011;30989;52.078;21.014;2023-12-20T08:20:16;7.72;;;4.65;;
45254;SDS011;30989;52.078;21.014;2023-12-20T08:22:42;9.68;;;5.43;;
45254;SDS011;30989;52.078;21.014;2023-12-20T08:25:07;9.23;;;5.20;;
45254;SDS011;30989;52.078;21.014;2023-12-20T08:27:33;11.63;;;6.13;;
45254;SDS011;30989;52.078;21.014;2023-12-20T08:30:01;8.20;;;4.90;;
45254;SDS011;30989;52.078;21.014;2023-12-20T08:32:27;9.65;;;5.32;;
45254;SDS011;30989;52.078;21.014;2023-12-20T08:34:52;7.05;;;4.18;;
45254;SDS011;30989;52.078;21.014;2023-12-20T08:37:17;7.68;;;4.63;;
45254;SDS011;30989;52.078;21.014;2023-12-20T08:39:43;8.88;;;5.05;;
45254;SDS011;30989;52.078;21.014;2023-12-20T08:42:09;8.45;;;4.75;;
45254;SDS011;30989;52.078;21.014;2023-12-20T08:44:34;10.07;;;4.72;;
45254;SDS011;30989;52.078;21.014;2023-12-20T08:47:00;8.45;;;5.05;;
45254;SDS011;30989;52.078;21.014;2023-12-20T08:49:25;12.45;;;4.78;;
45254;SDS011;30989;52.078;21.014;2023-12-20T08:51:51;8.15;;;4.53;;
45254;SDS011;30989;52.078;21.014;2023-12-20T08:54:16;10.18;;;5.15;;
45254;SDS011;30989;52.078;21.014;2023-12-20T08:56:42;9.75;;;5.32;;
45254;SDS011;30989;52.078;21.014;2023-12-20T08:59:08;8.35;;;5.10;;
45254;SDS011;30989;52.078;21.014;2023-12-20T09:01:34;8.00;;;4.82;;
45254;SDS011;30989;52.078;21.014;2023-12-20T09:04:00;8.60;;;4.70;;
45254;SDS011;30989;52.078;21.014;2023-12-20T09:06:25;9.15;;;5.10;;
45254;SDS011;30989;52.078;21.014;2023-12-20T09:08:51;10.00;;;5.10;;
45254;SDS011;30989;52.078;21.014;2023-12-20T09:11:17;8.13;;;4.85;;
45254;SDS011;30989;52.078;21.014;2023-12-20T09:13:42;7.93;;;4.93;;
45254;SDS011;30989;52.078;21.014;2023-12-20T09:16:09;9.75;;;4.45;;
45254;SDS011;30989;52.078;21.014;2023-12-20T09:18:35;12.60;;;5.28;;
45254;SDS011;30989;52.078;21.014;2023-12-20T09:21:00;7.35;;;4.63;;
45254;SDS011;30989;52.078;21.014;2023-12-20T09:23:27;6.32;;;3.60;;
45254;SDS011;30989;52.078;21.014;2023-12-20T09:25:52;9.23;;;5.03;;
45254;SDS011;30989;52.078;21.014;2023-12-20T09:28:18;6.45;;;3.70;;
45254;SDS011;30989;52.078;21.014;2023-12-20T09:30:44;7.75;;;4.20;;
45254;SDS011;30989;52.078;21.014;2023-12-20T09:33:11;7.57;;;4.05;;
45254;SDS011;30989;52.078;21.014;2023-12-20T09:35:37;7.07;;;3.78;;
45254;SDS011;30989;52.078;21.014;2023-12-20T09:38:06;6.68;;;3.88;;
45254;SDS011;30989;52.078;21.014;2023-12-20T09:40:32;6.47;;;3.47;;
45254;SDS011;30989;52.078;21.014;2023-12-20T09:43:05;8.25;;;4.22;;
45254;SDS011;30989;52.078;21.014;2023-12-20T09:45:39;6.68;;;3.50;;
45254;SDS011;30989;52.078;21.014;2023-12-20T09:48:05;6.65;;;3.35;;
45254;SDS011;30989;52.078;21.014;2023-12-20T09:50:32;7.93;;;3.70;;
45254;SDS011;30989;52.078;21.014;2023-12-20T09:52:58;6.25;;;3.20;;
45254;SDS011;30989;52.078;21.014;2023-12-20T09:55:26;5.93;;;3.05;;
45254;SDS011;30989;52.078;21.014;2023-12-20T09:57:54;5.43;;;3.03;;
45254;SDS011;30989;52.078;21.014;2023-12-20T10:00:19;6.68;;;3.00;;
45254;SDS011;30989;52.078;21.014;2023-12-20T10:02:48;5.18;;;2.60;;
45254;SDS011;30989;52.078;21.014;2023-12-20T10:05:18;5.35;;;3.08;;
45254;SDS011;30989;52.078;21.014;2023-12-20T10:07:47;3.95;;;2.50;;
45254;SDS011;30989;52.078;21.014;2023-12-20T10:10:13;6.07;;;2.83;;
45254;SDS011;30989;52.078;21.014;2023-12-20T10:12:39;5.45;;;2.75;;
45254;SDS011;30989;52.078;21.014;2023-12-20T10:15:05;6.97;;;3.45;;
45254;SDS011;30989;52.078;21.014;2023-12-20T10:17:31;5.25;;;2.50;;
45254;SDS011;30989;52.078;21.014;2023-12-20T10:19:58;5.63;;;2.75;;
45254;SDS011;30989;52.078;21.014;2023-12-20T10:22:23;5.32;;;3.42;;
45254;SDS011;30989;52.078;21.014;2023-12-20T10:24:49;7.57;;;2.53;;
45254;SDS011;30989;52.078;21.014;2023-12-20T10:27:15;7.60;;;3.58;;
45254;SDS011;30989;52.078;21.014;2023-12-20T10:29:44;4.28;;;2.33;;
45254;SDS011;30989;52.078;21.014;2023-12-20T10:32:23;5.28;;;2.78;;
45254;SDS011;30989;52.078;21.014;2023-12-20T10:34:52;5.47;;;2.50;;
45254;SDS011;30989;52.078;21.014;2023-12-20T10:37:19;5.85;;;3.53;;
45254;SDS011;30989;52.078;21.014;2023-12-20T10:39:47;6.90;;;2.65;;
45254;SDS011;30989;52.078;21.014;2023-12-20T10:42:16;7.68;;;3.42;;
45254;SDS011;30989;52.078;21.014;2023-12-20T10:44:42;6.18;;;3.00;;
45254;SDS011;30989;52.078;21.014;2023-12-20T10:47:08;5.32;;;3.15;;
45254;SDS011;30989;52.078;21.014;2023-12-20T10:49:36;5.20;;;3.03;;
45254;SDS011;30989;52.078;21.014;2023-12-20T10:52:03;6.45;;;2.97;;
45254;SDS011;30989;52.078;21.014;2023-12-20T10:54:30;5.22;;;2.80;;
45254;SDS011;30989;52.078;21.014;2023-12-20T10:56:56;5.78;;;3.17;;
45254;SDS011;30989;52.078;21.014;2023-12-20T10:59:22;4.18;;;2.03;;
45254;SDS011;30989;52.078;21.014;2023-12-20T11:01:50;6.25;;;2.70;;
45254;SDS011;30989;52.078;21.014;2023-12-20T11:04:18;4.35;;;1.98;;
45254;SDS011;30989;52.078;21.014;2023-12-20T11:06:51;3.38;;;2.00;;
45254;SDS011;30989;52.078;21.014;2023-12-20T11:09:25;5.13;;;2.83;;
45254;SDS011;30989;52.078;21.014;2023-12-20T11:12:02;6.50;;;3.22;;
45254;SDS011;30989;52.078;21.014;2023-12-20T11:17:11;5.20;;;1.92;;
45254;SDS011;30989;52.078;21.014;2023-12-20T11:22:24;4.97;;;2.15;;
45254;SDS011;30989;52.078;21.014;2023-12-20T11:24:50;4.65;;;2.40;;
45254;SDS011;30989;52.078;21.014;2023-12-20T11:27:18;4.03;;;2.15;;
45254;SDS011;30989;52.078;21.014;2023-12-20T11:29:50;6.82;;;2.20;;
45254;SDS011;30989;52.078;21.014;2023-12-20T11:34:56;6.80;;;2.25;;
45254;SDS011;30989;52.078;21.014;2023-12-20T11:37:36;7.28;;;2.78;;
45254;SDS011;30989;52.078;21.014;2023-12-20T11:40:03;5.05;;;2.53;;
45254;SDS011;30989;52.078;21.014;2023-12-20T11:42:38;5.18;;;2.70;;
45254;SDS011;30989;52.078;21.014;2023-12-20T11:45:07;6.85;;;3.10;;
45254;SDS011;30989;52.078;21.014;2023-12-20T11:47:36;4.95;;;2.80;;
45254;SDS011;30989;52.078;21.014;2023-12-20T11:50:01;7.57;;;2.92;;
45254;SDS011;30989;52.078;21.014;2023-12-20T11:52:29;7.25;;;2.90;;
45254;SDS011;30989;52.078;21.014;2023-12-20T11:54:55;6.03;;;3.67;;
45254;SDS011;30989;52.078;21.014;2023-12-20T11:57:20;6.38;;;2.80;;
45254;SDS011;30989;52.078;21.014;2023-12-20T11:59:46;6.78;;;3.22;;
45254;SDS011;30989;52.078;21.014;2023-12-20T12:02:11;5.30;;;2.65;;
45254;SDS011;30989;52.078;21.014;2023-12-20T12:04:37;10.90;;;3.80;;
45254;SDS011;30989;52.078;21.014;2023-12-20T12:07:03;3.95;;;2.25;;
45254;SDS011;30989;52.078;21.014;2023-12-20T12:09:28;4.85;;;2.30;;
45254;SDS011;30989;52.078;21.014;2023-12-20T12:11:54;4.22;;;2.55;;
45254;SDS011;30989;52.078;21.014;2023-12-20T12:14:20;4.45;;;2.22;;
45254;SDS011;30989;52.078;21.014;2023-12-20T12:16:45;8.15;;;2.95;;
45254;SDS011;30989;52.078;21.014;2023-12-20T12:19:20;4.47;;;2.10;;
45254;SDS011;30989;52.078;21.014;2023-12-20T12:21:50;3.92;;;2.13;;
45254;SDS011;30989;52.078;21.014;2023-12-20T12:24:19;3.90;;;2.28;;
45254;SDS011;30989;52.078;21.014;2023-12-20T12:26:50;4.60;;;2.05;;
45254;SDS011;30989;52.078;21.014;2023-12-20T12:29:16;5.32;;;1.70;;
45254;SDS011;30989;52.078;21.014;2023-12-20T12:31:42;3.42;;;1.83;;
45254;SDS011;30989;52.078;21.014;2023-12-20T12:34:07;4.05;;;1.80;;
45254;SDS011;30989;52.078;21.014;2023-12-20T12:36:34;3.75;;;1.85;;
45254;SDS011;30989;52.078;21.014;2023-12-20T12:39:02;4.05;;;1.38;;
45254;SDS011;30989;52.078;21.014;2023-12-20T12:41:29;2.95;;;1.60;;
45254;SDS011;30989;52.078;21.014;2023-12-20T12:43:55;3.17;;;1.80;;
45254;SDS011;30989;52.078;21.014;2023-12-20T12:46:20;6.13;;;2.00;;
45254;SDS011;30989;52.078;21.014;2023-12-20T12:48:46;4.18;;;2.03;;
45254;SDS011;30989;52.078;21.014;2023-12-20T12:51:12;4.43;;;2.22;;
45254;SDS011;30989;52.078;21.014;2023-12-20T12:53:39;4.30;;;2.13;;
45254;SDS011;30989;52.078;21.014;2023-12-20T12:56:05;4.97;;;2.45;;
45254;SDS011;30989;52.078;21.014;2023-12-20T12:58:31;5.90;;;2.10;;
45254;SDS011;30989;52.078;21.014;2023-12-20T13:00:57;4.53;;;2.53;;
45254;SDS011;30989;52.078;21.014;2023-12-20T13:03:22;4.45;;;2.00;;
45254;SDS011;30989;52.078;21.014;2023-12-20T13:05:48;5.55;;;2.65;;
45254;SDS011;30989;52.078;21.014;2023-12-20T13:08:14;7.38;;;2.80;;
45254;SDS011;30989;52.078;21.014;2023-12-20T13:10:40;6.88;;;2.72;;
45254;SDS011;30989;52.078;21.014;2023-12-20T13:13:05;4.65;;;2.45;;
45254;SDS011;30989;52.078;21.014;2023-12-20T13:15:32;5.45;;;2.90;;
45254;SDS011;30989;52.078;21.014;2023-12-20T13:17:57;7.03;;;2.05;;
45254;SDS011;30989;52.078;21.014;2023-12-20T13:20:22;5.95;;;2.40;;
45254;SDS011;30989;52.078;21.014;2023-12-20T13:22:48;5.75;;;2.80;;
45254;SDS011;30989;52.078;21.014;2023-12-20T13:25:13;6.40;;;2.40;;
45254;SDS011;30989;52.078;21.014;2023-12-20T13:27:39;7.00;;;2.60;;
45254;SDS011;30989;52.078;21.014;2023-12-20T13:30:05;5.70;;;2.92;;
45254;SDS011;30989;52.078;21.014;2023-12-20T13:32:31;7.60;;;3.28;;
45254;SDS011;30989;52.078;21.014;2023-12-20T13:34:56;6.03;;;3.17;;
45254;SDS011;30989;52.078;21.014;2023-12-20T13:37:22;5.95;;;2.38;;
45254;SDS011;30989;52.078;21.014;2023-12-20T13:39:47;7.00;;;3.03;;
45254;SDS011;30989;52.078;21.014;2023-12-20T13:42:13;6.28;;;2.97;;
45254;SDS011;30989;52.078;21.014;2023-12-20T13:44:39;11.48;;;3.15;;
45254;SDS011;30989;52.078;21.014;2023-12-20T13:47:05;8.63;;;3.53;;
45254;SDS011;30989;52.078;21.014;2023-12-20T13:49:31;7.10;;;3.58;;
45254;SDS011;30989;52.078;21.014;2023-12-20T13:51:57;8.73;;;3.72;;
45254;SDS011;30989;52.078;21.014;2023-12-20T13:54:23;5.05;;;3.13;;
45254;SDS011;30989;52.078;21.014;2023-12-20T13:56:48;6.85;;;2.70;;
45254;SDS011;30989;52.078;21.014;2023-12-20T13:59:13;7.03;;;3.50;;
45254;SDS011;30989;52.078;21.014;2023-12-20T14:01:40;7.70;;;3.53;;
45254;SDS011;30989;52.078;21.014;2023-12-20T14:04:05;7.88;;;3.42;;
45254;SDS011;30989;52.078;21.014;2023-12-20T14:06:32;5.18;;;3.40;;
45254;SDS011;30989;52.078;21.014;2023-12-20T14:08:58;7.85;;;4.13;;
45254;SDS011;30989;52.078;21.014;2023-12-20T14:11:28;6.85;;;3.97;;
45254;SDS011;30989;52.078;21.014;2023-12-20T14:13:53;9.65;;;3.70;;
45254;SDS011;30989;52.078;21.014;2023-12-20T14:16:23;10.93;;;3.38;;
45254;SDS011;30989;52.078;21.014;2023-12-20T14:18:49;7.03;;;3.22;;
45254;SDS011;30989;52.078;21.014;2023-12-20T14:21:17;7.18;;;3.65;;
45254;SDS011;30989;52.078;21.014;2023-12-20T14:23:42;6.28;;;3.28;;
45254;SDS011;30989;52.078;21.014;2023-12-20T14:26:08;5.63;;;3.17;;
45254;SDS011;30989;52.078;21.014;2023-12-20T14:28:42;7.57;;;2.78;;
45254;SDS011;30989;52.078;21.014;2023-12-20T14:31:09;6.82;;;3.47;;
45254;SDS011;30989;52.078;21.014;2023-12-20T14:33:35;9.00;;;3.70;;
45254;SDS011;30989;52.078;21.014;2023-12-20T14:36:00;4.97;;;2.60;;